createdAt,value
2018-06-27T00:00:55.359Z,99.90
2018-06-27T00:05:52.014Z,99.90
2018-06-27T00:08:20.553Z,99.90
2018-06-27T00:10:49.956Z,99.90
2018-06-27T00:13:18.450Z,99.90
2018-06-27T00:15:47.443Z,99.90
2018-06-27T00:18:17.450Z,99.90
2018-06-27T00:20:45.942Z,99.90
2018-06-27T00:23:15.653Z,99.90
2018-06-27T00:25:44.411Z,99.90
2018-06-27T00:28:12.913Z,99.90
2018-06-27T00:30:41.419Z,99.90
2018-06-27T00:35:38.113Z,99.90
2018-06-27T00:38:14.024Z,99.90
2018-06-27T00:40:42.766Z,99.90
2018-06-27T00:43:11.272Z,99.90
2018-06-27T00:45:39.775Z,99.90
2018-06-27T00:48:09.567Z,99.90
2018-06-27T00:50:38.453Z,99.90
2018-06-27T00:53:09.662Z,99.90
2018-06-27T00:55:38.230Z,99.90
2018-06-27T00:58:06.932Z,99.90
2018-06-27T01:00:35.875Z,99.90
2018-06-27T01:03:04.450Z,99.90
2018-06-27T01:05:32.943Z,99.90
2018-06-27T01:08:03.157Z,99.90
2018-06-27T01:10:31.680Z,99.90
2018-06-27T01:13:00.123Z,99.90
2018-06-27T01:15:28.662Z,99.90
2018-06-27T01:17:58.067Z,99.90
2018-06-27T01:20:26.951Z,99.90
2018-06-27T01:22:55.760Z,99.90
2018-06-27T01:25:24.305Z,99.90
2018-06-27T01:30:21.259Z,99.90
2018-06-27T01:32:49.743Z,99.90
2018-06-27T01:35:18.267Z,99.90
2018-06-27T01:37:46.807Z,99.90
2018-06-27T02:02:04.819Z,99.90
2018-06-27T02:04:33.311Z,99.90
2018-06-27T02:07:01.843Z,99.90
2018-06-27T02:09:30.326Z,99.90
2018-06-27T02:11:58.827Z,99.90
2018-06-27T02:14:27.298Z,99.90
2018-06-27T02:19:24.531Z,99.90
2018-06-27T02:21:53.030Z,99.90
2018-06-27T02:24:21.522Z,99.90
2018-06-27T02:26:50.031Z,99.90
2018-06-27T02:40:43.528Z,99.90
2018-06-27T02:43:12.045Z,99.90
2018-06-27T02:45:40.550Z,99.90
2018-06-27T02:48:09.008Z,99.90
2018-06-27T02:50:38.595Z,99.90
2018-06-27T02:53:07.089Z,99.90
2018-06-27T02:55:35.587Z,99.90
2018-06-27T02:58:04.466Z,99.90
2018-06-27T03:00:32.930Z,99.90
2018-06-27T03:03:01.414Z,99.90
2018-06-27T03:05:29.969Z,99.90
2018-06-27T03:07:58.474Z,99.90
2018-06-27T03:10:26.995Z,99.90
2018-06-27T03:12:56.575Z,99.90
2018-06-27T03:15:25.106Z,99.90
2018-06-27T03:17:53.630Z,99.90
2018-06-27T03:20:22.504Z,99.90
2018-06-27T03:22:50.942Z,99.90
2018-06-27T03:25:19.458Z,99.90
2018-06-27T03:27:47.999Z,99.90
2018-06-27T03:30:17.511Z,99.90
2018-06-27T03:32:45.998Z,99.90
2018-06-27T03:47:45.983Z,99.90
2018-06-27T04:02:40.258Z,99.90
2018-06-27T04:05:09.471Z,99.90
2018-06-27T04:07:37.958Z,99.90
2018-06-27T04:10:06.696Z,99.90
2018-06-27T04:12:35.327Z,99.90
2018-06-27T04:15:03.924Z,99.90
2018-06-27T04:17:32.394Z,99.90
2018-06-27T04:20:00.964Z,99.90
2018-06-27T04:22:33.122Z,99.90
2018-06-27T04:25:02.424Z,99.90
2018-06-27T04:30:05.725Z,99.90
2018-06-27T04:32:34.489Z,99.90
2018-06-27T04:35:03.027Z,99.90
2018-06-27T04:37:31.576Z,99.90
2018-06-27T04:40:00.082Z,99.90
2018-06-27T04:42:28.592Z,99.90
2018-06-27T04:44:57.735Z,99.90
2018-06-27T04:47:26.234Z,99.90
2018-06-27T04:49:54.805Z,99.90
2018-06-27T04:52:23.307Z,99.90
2018-06-27T04:54:51.848Z,99.90
2018-06-27T04:57:20.387Z,99.90
2018-06-27T04:59:48.943Z,99.90
2018-06-27T05:02:17.556Z,99.90
2018-06-27T05:04:47.936Z,99.90
2018-06-27T05:07:17.021Z,99.90
2018-06-27T05:09:45.507Z,99.90
2018-06-27T05:21:20.799Z,99.90
2018-06-27T05:23:49.355Z,99.90
2018-06-27T05:26:17.997Z,99.90
2018-06-27T05:28:47.047Z,99.90
2018-06-27T05:43:47.375Z,99.90
2018-06-27T05:46:17.432Z,99.90
2018-06-27T05:48:46.005Z,99.90
2018-06-27T06:03:46.899Z,98.00
2018-06-27T06:06:17.799Z,94.40
2018-06-27T06:08:46.262Z,93.90
2018-06-27T06:23:46.987Z,91.30
2018-06-27T06:38:47.827Z,70.20
2018-06-27T06:41:17.516Z,49.50
2018-06-27T06:43:46.008Z,46.50
2018-06-27T06:58:46.837Z,51.00
2018-06-27T07:01:16.677Z,65.50
2018-06-27T07:03:45.271Z,68.30
2018-06-27T07:06:14.864Z,70.30
2018-06-27T07:08:44.120Z,70.20
2018-06-27T07:11:13.183Z,72.50
2018-06-27T07:13:41.684Z,72.50
2018-06-27T07:16:10.706Z,68.70
2018-06-27T07:18:39.324Z,68.40
2018-06-27T07:21:07.901Z,70.00
2018-06-27T07:23:36.501Z,71.90
2018-06-27T07:26:05.003Z,72.40
2018-06-27T07:28:33.558Z,73.50
2018-06-27T07:31:02.019Z,74.80
2018-06-27T07:35:59.170Z,78.00
2018-06-27T07:38:28.313Z,77.70
2018-06-27T07:41:00.183Z,75.40
2018-06-27T07:43:28.759Z,74.50
2018-06-27T07:45:57.381Z,71.00
2018-06-27T07:48:29.195Z,72.90
2018-06-27T07:53:30.353Z,67.10
2018-06-27T07:55:58.855Z,56.30
2018-06-27T07:58:27.387Z,53.90
2018-06-27T08:00:55.968Z,54.30
2018-06-27T08:03:24.620Z,53.30
2018-06-27T08:05:53.240Z,50.80
2018-06-27T08:08:23.148Z,52.50
2018-06-27T08:10:52.221Z,55.20
2018-06-27T08:13:20.811Z,56.50
2018-06-27T08:15:49.490Z,58.10
2018-06-27T08:18:18.155Z,60.00
2018-06-27T08:20:46.642Z,61.00
2018-06-27T08:32:52.190Z,62.80
2018-06-27T08:35:20.719Z,63.80
2018-06-27T08:37:49.244Z,64.10
2018-06-27T08:40:17.855Z,55.20
2018-06-27T08:42:47.764Z,52.70
2018-06-27T08:45:17.478Z,53.40
2018-06-27T08:47:45.983Z,53.00
2018-06-27T09:10:17.557Z,46.30
2018-06-27T09:12:46.757Z,44.10
2018-06-27T09:15:17.384Z,48.10
2018-06-27T09:17:47.277Z,50.40
2018-06-27T09:20:17.484Z,52.00
2018-06-27T09:22:46.669Z,53.30
2018-06-27T09:25:16.896Z,55.00
2018-06-27T09:27:45.503Z,56.70
2018-06-27T09:50:38.736Z,48.10
2018-06-27T09:53:07.243Z,28.80
2018-06-27T09:55:35.751Z,29.30
2018-06-27T10:00:39.042Z,31.40
2018-06-27T10:03:10.701Z,32.20
2018-06-27T10:05:39.203Z,33.70
2018-06-27T10:08:08.597Z,32.20
2018-06-27T10:13:06.351Z,30.90
2018-06-27T10:15:34.863Z,31.90
2018-06-27T10:18:05.381Z,30.50
2018-06-27T10:20:33.892Z,31.80
2018-06-27T10:23:02.520Z,32.20
2018-06-27T10:25:31.079Z,34.60
2018-06-27T10:27:59.572Z,36.40
2018-06-27T10:30:28.454Z,38.90
2018-06-27T10:32:57.054Z,38.40
2018-06-27T10:35:25.615Z,40.40
2018-06-27T10:37:54.171Z,41.20
2018-06-27T10:40:22.761Z,43.70
2018-06-27T10:42:51.227Z,43.60
2018-06-27T10:45:19.883Z,44.30
2018-06-27T10:47:48.401Z,45.30
2018-06-27T10:50:17.439Z,45.40
2018-06-27T10:52:46.035Z,45.70
2018-06-27T11:16:18.469Z,45.70
2018-06-27T11:18:47.052Z,45.30
2018-06-27T11:21:16.574Z,45.10
2018-06-27T11:23:45.085Z,44.70
2018-06-27T11:26:13.641Z,45.00
2018-06-27T11:28:47.855Z,45.90
2018-06-27T11:31:17.603Z,46.70
2018-06-27T11:33:46.223Z,45.80
2018-06-27T11:44:16.438Z,44.80
2018-06-27T11:46:44.941Z,45.10
2018-06-27T11:49:15.456Z,41.60
2018-06-27T11:51:45.550Z,39.90
2018-06-27T12:06:41.570Z,41.40
2018-06-27T12:09:11.090Z,42.20
2018-06-27T12:11:39.779Z,40.70
2018-06-27T12:14:08.342Z,40.90
2018-06-27T12:16:38.208Z,41.20
2018-06-27T12:19:06.906Z,43.20
2018-06-27T12:21:35.506Z,42.90
2018-06-27T12:24:04.075Z,43.00
2018-06-27T12:26:32.634Z,45.40
2018-06-27T12:29:01.275Z,46.10
2018-06-27T12:31:30.051Z,46.60
2018-06-27T12:33:58.618Z,44.50
2018-06-27T12:38:56.579Z,46.80
2018-06-27T12:41:27.460Z,46.70
2018-06-27T12:43:56.013Z,46.60
2018-06-27T12:46:24.615Z,44.40
2018-06-27T12:48:53.913Z,46.60
2018-06-27T12:51:22.461Z,45.00
2018-06-27T12:53:50.993Z,43.30
2018-06-27T12:56:19.926Z,43.00
2018-06-27T12:58:48.435Z,42.20
2018-06-27T13:01:17.661Z,41.40
2018-06-27T13:03:46.487Z,41.20
2018-06-27T13:14:56.108Z,42.30
2018-06-27T13:17:24.757Z,42.10
2018-06-27T13:19:54.257Z,45.80
2018-06-27T13:22:23.727Z,46.50
2018-06-27T13:24:52.410Z,48.10
2018-06-27T13:27:21.262Z,47.40
2018-06-27T13:41:21.856Z,43.10
2018-06-27T13:43:50.574Z,43.20
2018-06-27T13:46:19.091Z,43.50
2018-06-27T13:48:47.863Z,43.80
2018-06-27T13:51:16.699Z,40.80
2018-06-27T13:53:45.316Z,40.90
2018-06-27T13:56:15.093Z,39.50
2018-06-27T13:58:44.927Z,40.10
2018-06-27T14:01:13.623Z,40.40
2018-06-27T14:03:42.185Z,41.30
2018-06-27T14:06:10.809Z,40.70
2018-06-27T14:08:40.129Z,39.60
2018-06-27T14:11:08.843Z,38.90
2018-06-27T14:13:38.027Z,39.30
2018-06-27T14:16:06.658Z,40.80
2018-06-27T14:18:38.582Z,41.60
2018-06-27T14:21:07.580Z,44.00
2018-06-27T14:23:36.172Z,45.00
2018-06-27T14:26:05.308Z,46.40
2018-06-27T14:28:33.859Z,44.50
2018-06-27T14:31:02.471Z,44.70
2018-06-27T14:33:31.178Z,43.40
2018-06-27T14:35:59.943Z,42.60
2018-06-27T14:38:32.026Z,43.60
2018-06-27T14:41:01.056Z,45.40
2018-06-27T14:43:30.914Z,44.80
2018-06-27T14:45:59.712Z,44.80
2018-06-27T14:48:28.296Z,43.40
2018-06-27T14:53:25.466Z,43.60
2018-06-27T14:55:54.052Z,43.40
2018-06-27T14:58:22.696Z,42.90
2018-06-27T15:00:51.459Z,42.90
2018-06-27T15:03:20.383Z,43.20
2018-06-27T15:05:49.125Z,43.10
2018-06-27T15:08:17.772Z,41.30
2018-06-27T15:10:46.865Z,41.20
2018-06-27T15:13:16.607Z,41.60
2018-06-27T15:15:45.136Z,41.70
2018-06-27T15:20:43.529Z,42.20
2018-06-27T15:23:12.312Z,40.60
2018-06-27T15:25:41.591Z,41.70
2018-06-27T15:28:11.424Z,41.70
2018-06-27T15:30:40.085Z,40.20
2018-06-27T15:33:08.988Z,40.90
2018-06-27T15:35:37.563Z,41.90
2018-06-27T15:40:34.708Z,40.30
2018-06-27T15:43:03.239Z,40.00
2018-06-27T15:45:31.763Z,39.30
2018-06-27T15:48:00.979Z,41.00
2018-06-27T15:50:34.887Z,40.50
2018-06-27T15:53:03.890Z,39.40
2018-06-27T15:55:32.431Z,40.70
2018-06-27T15:58:00.974Z,40.40
2018-06-27T16:00:29.540Z,39.60
2018-06-27T16:02:58.476Z,40.60
2018-06-27T16:05:27.093Z,40.10
2018-06-27T16:07:55.658Z,39.80
2018-06-27T16:10:24.333Z,40.40
2018-06-27T16:12:53.143Z,40.90
2018-06-27T16:15:21.781Z,40.60
2018-06-27T16:17:50.347Z,41.90
2018-06-27T16:20:18.869Z,41.90
2018-06-27T16:22:47.399Z,42.20
2018-06-27T16:25:16.686Z,40.60
2018-06-27T16:27:45.254Z,40.00
2018-06-27T16:32:43.115Z,39.40
2018-06-27T16:35:11.719Z,39.70
2018-06-27T16:37:40.605Z,41.30
2018-06-27T16:40:09.105Z,43.10
2018-06-27T16:42:37.675Z,43.70
2018-06-27T16:45:07.026Z,44.60
2018-06-27T16:50:04.349Z,46.00
2018-06-27T16:52:33.532Z,47.00
2018-06-27T16:55:02.023Z,47.00
2018-06-27T16:57:30.682Z,47.10
2018-06-27T16:59:59.378Z,47.50
2018-06-27T17:02:27.920Z,47.30
2018-06-27T17:04:56.549Z,47.40
2018-06-27T17:07:25.140Z,45.20
2018-06-27T17:09:53.949Z,47.40
2018-06-27T17:12:22.635Z,46.20
2018-06-27T17:14:51.351Z,44.20
2018-06-27T17:19:48.840Z,44.50
2018-06-27T17:22:17.690Z,45.20
2018-06-27T17:24:53.732Z,44.50
2018-06-27T17:27:22.339Z,45.20
2018-06-27T17:29:50.930Z,45.30
2018-06-27T17:32:19.939Z,45.90
2018-06-27T17:37:18.968Z,49.10
2018-06-27T17:39:54.395Z,52.20
2018-06-27T17:44:51.792Z,53.70
2018-06-27T17:47:21.219Z,54.90
2018-06-27T17:49:49.767Z,55.60
2018-06-27T17:52:18.279Z,54.90
2018-06-27T17:54:46.864Z,54.50
2018-06-27T18:06:57.516Z,54.90
2018-06-27T18:09:26.652Z,55.10
2018-06-27T18:11:55.259Z,59.30
2018-06-27T18:14:24.296Z,59.80
2018-06-27T18:16:53.552Z,59.90
2018-06-27T18:19:22.287Z,60.10
2018-06-27T18:21:50.851Z,59.90
2018-06-27T18:24:20.070Z,59.80
2018-06-27T18:26:48.591Z,59.80
2018-06-27T18:29:17.473Z,60.20
2018-06-27T18:31:46.039Z,59.10
2018-06-27T18:34:15.590Z,59.20
2018-06-27T18:36:44.262Z,59.10
2018-06-27T18:41:43.443Z,59.50
2018-06-27T18:44:12.711Z,59.70
2018-06-27T18:46:41.572Z,59.50
2018-06-27T18:49:10.116Z,59.40
2018-06-27T18:51:39.516Z,59.50
2018-06-27T18:56:36.527Z,60.00
2018-06-27T18:59:05.610Z,60.30
2018-06-27T19:01:34.426Z,60.20
2018-06-27T19:04:03.821Z,60.60
2018-06-27T19:06:33.425Z,61.40
2018-06-27T19:09:01.991Z,62.30
2018-06-27T19:11:31.129Z,62.70
2018-06-27T19:13:59.807Z,63.00
2018-06-27T19:16:28.359Z,62.90
2018-06-27T19:18:56.852Z,62.90
2018-06-27T19:21:26.059Z,62.70
2018-06-27T19:23:54.595Z,62.70
2018-06-27T19:26:23.091Z,63.10
2018-06-27T19:28:51.585Z,62.90
2018-06-27T19:31:20.077Z,63.10
2018-06-27T19:33:48.651Z,63.80
2018-06-27T19:36:17.443Z,64.10
2018-06-27T19:38:46.428Z,64.90
2018-06-27T19:57:50.987Z,66.00
2018-06-27T20:00:19.593Z,66.20
2018-06-27T20:02:48.139Z,70.90
2018-06-27T20:05:17.608Z,72.10
2018-06-27T20:07:46.165Z,72.20
2018-06-27T20:10:15.826Z,72.80
2018-06-27T20:12:44.369Z,73.40
2018-06-27T20:15:12.976Z,74.20
2018-06-27T20:17:42.111Z,73.90
2018-06-27T20:20:10.973Z,73.90
2018-06-27T20:22:39.486Z,74.40
2018-06-27T20:25:08.497Z,74.70
2018-06-27T20:27:37.167Z,75.30
2018-06-27T20:30:06.909Z,76.30
2018-06-27T20:32:35.551Z,77.20
2018-06-27T20:35:04.317Z,77.80
2018-06-27T20:37:33.460Z,77.90
2018-06-27T20:42:30.559Z,78.70
2018-06-27T20:45:02.287Z,79.70
2018-06-27T20:47:30.924Z,79.90
2018-06-27T20:49:59.966Z,80.00
2018-06-27T20:52:28.719Z,78.50
2018-06-27T20:54:57.268Z,78.20
2018-06-27T20:57:25.783Z,78.70
2018-06-27T20:59:54.270Z,78.80
2018-06-27T21:02:22.857Z,79.70
2018-06-27T21:04:51.375Z,81.00
2018-06-27T21:07:20.082Z,81.60
2018-06-27T21:09:48.603Z,82.10
2018-06-27T21:12:17.495Z,81.50
2018-06-27T21:14:46.094Z,81.80
2018-06-27T21:35:57.958Z,82.50
2018-06-27T21:38:26.509Z,85.10
2018-06-27T21:40:54.987Z,85.50
2018-06-27T21:43:23.467Z,86.40
2018-06-27T21:45:51.987Z,85.70
2018-06-27T21:48:20.496Z,87.20
2018-06-27T21:50:49.091Z,88.10
2018-06-27T21:53:17.988Z,89.20
2018-06-27T21:58:15.987Z,90.30
2018-06-27T22:00:44.528Z,90.30
2018-06-27T22:03:13.088Z,90.60
2018-06-27T22:05:41.543Z,90.40
2018-06-27T22:08:10.098Z,90.00
2018-06-27T22:10:38.594Z,90.30
2018-06-27T22:13:07.082Z,90.70
2018-06-27T22:15:36.650Z,90.90
2018-06-27T22:18:05.221Z,90.90
2018-06-27T22:20:33.727Z,90.90
2018-06-27T22:23:02.262Z,91.20
2018-06-27T22:25:30.751Z,91.20
2018-06-27T22:27:59.200Z,90.90
2018-06-27T22:30:27.710Z,90.90
2018-06-27T22:32:56.223Z,91.20
2018-06-27T22:35:24.732Z,91.30
2018-06-27T22:37:53.632Z,91.80
2018-06-27T22:40:22.095Z,91.50
2018-06-27T22:42:50.585Z,91.60
2018-06-27T22:45:19.111Z,92.10
2018-06-27T22:47:47.619Z,92.40
2018-06-27T22:50:17.395Z,92.60
2018-06-27T22:52:46.259Z,92.90
2018-06-27T23:04:26.837Z,92.60
2018-06-27T23:06:55.295Z,92.50
2018-06-27T23:09:23.812Z,93.30
2018-06-27T23:11:52.323Z,93.10
2018-06-27T23:16:48.975Z,93.20
2018-06-27T23:19:17.547Z,93.60
2018-06-27T23:21:46.014Z,94.00
2018-06-27T23:24:15.643Z,93.60
2018-06-27T23:26:44.582Z,93.40
2018-06-27T23:29:13.116Z,93.60
2018-06-27T23:31:41.599Z,93.60
2018-06-27T23:34:10.127Z,93.80
2018-06-27T23:36:38.655Z,93.80
2018-06-27T23:39:09.952Z,92.90
2018-06-27T23:41:38.943Z,93.40
2018-06-27T23:44:07.462Z,93.10
2018-06-27T23:49:05.011Z,93.80
2018-06-27T23:51:33.503Z,94.40
2018-06-27T23:54:02.554Z,94.40
2018-06-27T23:56:31.031Z,94.40
2018-06-27T23:58:59.551Z,94.30
